BAW8730 EGLC-EGPF
Flight info
| Callsign | BAW8730 |
|---|---|
| Flight time | 0h 51m |
| Altitude | 32000 |
| Route | BPK UN601 RIBEL DCT ASLIB |
| Aircraft | E190/M-SDE3GILORVW/S |
Departure
| Time | 2026-04-29 23:24 |
|---|---|
| Airport | London City Airport (EGLC) |
Arrival
| Time | 2026-04-30 00:15 |
|---|---|
| Airport | Glasgow Airport (EGPF) |
| Time | Latitude | Longitude | Altitude | Speed | Heading |
|---|---|---|---|---|---|
| 2026-04-29 23:00 | 51.50402 | 0.05356 | 24 ft | 0 kts | 324° |
| 2026-04-29 23:19 | 51.50403 | 0.05356 | 24 ft | 0 kts | 324° |
| 2026-04-29 23:20 | 51.50404 | 0.05354 | 26 ft | 1 kts | 324° |
| 2026-04-29 23:20 | 51.50416 | 0.05351 | 25 ft | 2 kts | 360° |
| 2026-04-29 23:21 | 51.50438 | 0.05329 | 25 ft | 6 kts | 300° |
| 2026-04-29 23:21 | 51.50448 | 0.05226 | 24 ft | 13 kts | 272° |
| 2026-04-29 23:21 | 51.50456 | 0.05074 | 24 ft | 14 kts | 287° |
| 2026-04-29 23:21 | 51.50464 | 0.04931 | 24 ft | 13 kts | 272° |
| 2026-04-29 23:22 | 51.50466 | 0.04832 | 24 ft | 14 kts | 272° |
| 2026-04-29 23:22 | 51.50473 | 0.04640 | 24 ft | 15 kts | 273° |
| 2026-04-29 23:22 | 51.50480 | 0.04460 | 24 ft | 12 kts | 278° |
| 2026-04-29 23:22 | 51.50507 | 0.04439 | 24 ft | 6 kts | 348° |
| 2026-04-29 23:23 | 51.50552 | 0.04469 | 24 ft | 9 kts | 59° |
| 2026-04-29 23:23 | 51.50549 | 0.04673 | 24 ft | 46 kts | 92° |
| 2026-04-29 23:23 | 51.50521 | 0.05615 | 24 ft | 121 kts | 93° |
| 2026-04-29 23:23 | 51.50500 | 0.07221 | 358 ft | 157 kts | 88° |
| 2026-04-29 23:24 | 51.50494 | 0.08985 | 1390 ft | 159 kts | 90° |
| 2026-04-29 23:24 | 51.50499 | 0.10875 | 2243 ft | 179 kts | 86° |
| 2026-04-29 23:24 | 51.51098 | 0.12801 | 2847 ft | 223 kts | 53° |
| 2026-04-29 23:24 | 51.52535 | 0.13960 | 2913 ft | 250 kts | 15° |
| 2026-04-29 23:25 | 51.54289 | 0.13431 | 3057 ft | 271 kts | 338° |
| 2026-04-29 23:25 | 51.55717 | 0.11349 | 3058 ft | 286 kts | 308° |
| 2026-04-29 23:25 | 51.56903 | 0.08746 | 3103 ft | 290 kts | 310° |
| 2026-04-29 23:25 | 51.58261 | 0.06320 | 3138 ft | 293 kts | 319° |
| 2026-04-29 23:26 | 51.59843 | 0.04238 | 3062 ft | 298 kts | 331° |
| 2026-04-29 23:26 | 51.61627 | 0.02525 | 3082 ft | 300 kts | 335° |
| 2026-04-29 23:26 | 51.63459 | 0.00797 | 2986 ft | 308 kts | 334° |
| 2026-04-29 23:26 | 51.65273 | -0.00980 | 3036 ft | 298 kts | 333° |
| 2026-04-29 23:27 | 51.66992 | -0.02693 | 3003 ft | 283 kts | 333° |
| 2026-04-29 23:27 | 51.68604 | -0.04307 | 2959 ft | 269 kts | 334° |
| 2026-04-29 23:27 | 51.70158 | -0.05868 | 2937 ft | 257 kts | 334° |
| 2026-04-29 23:27 | 51.71662 | -0.07371 | 3241 ft | 255 kts | 334° |
| 2026-04-29 23:28 | 51.73199 | -0.08903 | 3276 ft | 261 kts | 333° |
| 2026-04-29 23:28 | 51.74707 | -0.10424 | 3869 ft | 260 kts | 333° |
| 2026-04-29 23:28 | 51.76329 | -0.12011 | 4416 ft | 281 kts | 334° |
| 2026-04-29 23:28 | 51.78061 | -0.13625 | 5164 ft | 291 kts | 334° |
| 2026-04-29 23:29 | 51.79822 | -0.15285 | 6111 ft | 294 kts | 333° |
| 2026-04-29 23:29 | 51.81596 | -0.16965 | 7031 ft | 297 kts | 333° |
| 2026-04-29 23:29 | 51.83385 | -0.18664 | 7790 ft | 300 kts | 332° |
| 2026-04-29 23:29 | 51.85188 | -0.20377 | 8611 ft | 302 kts | 332° |
| 2026-04-29 23:30 | 51.86995 | -0.22098 | 9441 ft | 306 kts | 332° |
| 2026-04-29 23:30 | 51.88841 | -0.23856 | 10267 ft | 311 kts | 332° |
| 2026-04-29 23:30 | 51.90779 | -0.25699 | 10664 ft | 331 kts | 331° |
| 2026-04-29 23:30 | 51.92806 | -0.27634 | 11168 ft | 346 kts | 331° |
| 2026-04-29 23:31 | 51.94920 | -0.29655 | 11690 ft | 359 kts | 331° |
| 2026-04-29 23:31 | 51.97089 | -0.31732 | 12446 ft | 365 kts | 331° |
| 2026-04-29 23:31 | 51.99285 | -0.33836 | 13298 ft | 368 kts | 331° |
| 2026-04-29 23:31 | 52.01502 | -0.35963 | 14182 ft | 372 kts | 331° |
| 2026-04-29 23:32 | 52.03742 | -0.38113 | 14982 ft | 377 kts | 331° |
| 2026-04-29 23:32 | 52.06019 | -0.40300 | 15758 ft | 383 kts | 331° |
| 2026-04-29 23:32 | 52.08332 | -0.42525 | 16527 ft | 389 kts | 331° |
| 2026-04-29 23:32 | 52.10675 | -0.44790 | 17252 ft | 395 kts | 331° |
| 2026-04-29 23:33 | 52.13055 | -0.47109 | 17954 ft | 401 kts | 331° |
| 2026-04-29 23:33 | 52.15433 | -0.49423 | 18635 ft | 406 kts | 331° |
| 2026-04-29 23:33 | 52.17871 | -0.51804 | 19283 ft | 410 kts | 331° |
| 2026-04-29 23:33 | 52.20329 | -0.54202 | 19977 ft | 413 kts | 331° |
| 2026-04-29 23:34 | 52.22818 | -0.56637 | 20663 ft | 417 kts | 331° |
| 2026-04-29 23:34 | 52.25322 | -0.59079 | 21312 ft | 421 kts | 331° |
| 2026-04-29 23:34 | 52.27848 | -0.61539 | 21902 ft | 424 kts | 330° |
| 2026-04-29 23:34 | 52.30368 | -0.63999 | 22451 ft | 428 kts | 330° |
| 2026-04-29 23:35 | 52.32942 | -0.66513 | 22998 ft | 431 kts | 330° |
| 2026-04-29 23:35 | 52.35527 | -0.69045 | 23544 ft | 434 kts | 330° |
| 2026-04-29 23:35 | 52.38130 | -0.71594 | 24065 ft | 437 kts | 330° |
| 2026-04-29 23:35 | 52.40215 | -0.73642 | 24446 ft | 440 kts | 330° |
| 2026-04-29 23:36 | 52.42853 | -0.76232 | 24934 ft | 442 kts | 330° |
| 2026-04-29 23:36 | 52.45498 | -0.78838 | 25425 ft | 445 kts | 330° |
| 2026-04-29 23:36 | 52.48159 | -0.81457 | 25905 ft | 448 kts | 330° |
| 2026-04-29 23:36 | 52.50801 | -0.84067 | 26349 ft | 450 kts | 330° |
| 2026-04-29 23:37 | 52.53498 | -0.86730 | 26789 ft | 453 kts | 330° |
| 2026-04-29 23:37 | 52.56207 | -0.89411 | 27215 ft | 455 kts | 330° |
| 2026-04-29 23:37 | 52.58926 | -0.92105 | 27631 ft | 458 kts | 330° |
| 2026-04-29 23:37 | 52.61662 | -0.94823 | 27968 ft | 460 kts | 330° |
| 2026-04-29 23:38 | 52.64410 | -0.97553 | 28344 ft | 463 kts | 330° |
| 2026-04-29 23:38 | 52.67175 | -1.00307 | 28707 ft | 465 kts | 330° |
| 2026-04-29 23:38 | 52.69964 | -1.03087 | 28909 ft | 471 kts | 330° |
| 2026-04-29 23:38 | 52.72791 | -1.05910 | 29226 ft | 474 kts | 330° |
| 2026-04-29 23:39 | 52.75610 | -1.08729 | 29807 ft | 473 kts | 330° |
| 2026-04-29 23:39 | 52.78418 | -1.11543 | 30359 ft | 470 kts | 329° |
| 2026-04-29 23:39 | 52.81172 | -1.14306 | 30786 ft | 469 kts | 329° |
| 2026-04-29 23:39 | 52.83993 | -1.17139 | 31160 ft | 468 kts | 329° |
| 2026-04-29 23:40 | 52.86777 | -1.19941 | 31533 ft | 468 kts | 329° |
| 2026-04-29 23:40 | 52.89525 | -1.22710 | 31888 ft | 468 kts | 329° |
| 2026-04-29 23:40 | 52.92300 | -1.25511 | 32248 ft | 467 kts | 329° |
| 2026-04-29 23:40 | 52.95070 | -1.28310 | 32429 ft | 468 kts | 329° |
| 2026-04-29 23:41 | 53.00628 | -1.33944 | 32407 ft | 467 kts | 329° |
| 2026-04-29 23:41 | 53.06042 | -1.39444 | 32413 ft | 466 kts | 329° |
| 2026-04-29 23:42 | 53.11577 | -1.45085 | 32369 ft | 466 kts | 329° |
| 2026-04-29 23:42 | 53.17112 | -1.50743 | 32382 ft | 466 kts | 329° |
| 2026-04-29 23:43 | 53.22618 | -1.56389 | 32386 ft | 468 kts | 329° |
| 2026-04-29 23:43 | 53.28185 | -1.62116 | 32385 ft | 470 kts | 329° |
| 2026-04-29 23:44 | 53.33750 | -1.67862 | 32383 ft | 470 kts | 329° |
| 2026-04-29 23:44 | 53.39314 | -1.73619 | 32393 ft | 470 kts | 329° |
| 2026-04-29 23:45 | 53.44844 | -1.79361 | 32401 ft | 470 kts | 329° |
| 2026-04-29 23:45 | 53.50403 | -1.85148 | 32401 ft | 470 kts | 328° |
| 2026-04-29 23:46 | 53.55960 | -1.90945 | 32395 ft | 470 kts | 328° |
| 2026-04-29 23:46 | 53.61490 | -1.96736 | 32396 ft | 470 kts | 328° |
| 2026-04-29 23:47 | 53.67037 | -2.02575 | 32396 ft | 470 kts | 328° |
| 2026-04-29 23:47 | 53.72579 | -2.08428 | 32404 ft | 470 kts | 328° |
| 2026-04-29 23:48 | 53.78478 | -2.13205 | 32420 ft | 471 kts | 340° |
| 2026-04-29 23:48 | 53.84574 | -2.17272 | 32391 ft | 470 kts | 339° |
| 2026-04-29 23:49 | 53.90650 | -2.21406 | 32399 ft | 471 kts | 339° |
| 2026-04-29 23:49 | 53.96678 | -2.25559 | 32396 ft | 471 kts | 339° |
| 2026-04-29 23:50 | 54.02698 | -2.29965 | 32437 ft | 471 kts | 333° |
| 2026-04-29 23:51 | 54.11302 | -2.38069 | 32390 ft | 471 kts | 331° |
| 2026-04-29 23:51 | 54.17040 | -2.43497 | 32404 ft | 471 kts | 331° |
| 2026-04-29 23:52 | 54.22782 | -2.48940 | 32404 ft | 471 kts | 331° |
| 2026-04-29 23:52 | 54.28508 | -2.54382 | 32407 ft | 470 kts | 331° |
| 2026-04-29 23:53 | 54.34193 | -2.59803 | 32408 ft | 470 kts | 331° |
| 2026-04-29 23:53 | 54.39909 | -2.65269 | 32407 ft | 470 kts | 331° |
| 2026-04-29 23:54 | 54.45637 | -2.70764 | 32421 ft | 471 kts | 331° |
| 2026-04-29 23:54 | 54.51374 | -2.76286 | 32411 ft | 473 kts | 330° |
| 2026-04-29 23:55 | 54.57113 | -2.81827 | 32407 ft | 473 kts | 330° |
| 2026-04-29 23:55 | 54.62812 | -2.87348 | 32410 ft | 472 kts | 330° |
| 2026-04-29 23:55 | 54.65696 | -2.90146 | 31997 ft | 477 kts | 330° |
| 2026-04-29 23:56 | 54.68573 | -2.92942 | 31697 ft | 474 kts | 330° |
| 2026-04-29 23:56 | 54.71473 | -2.95764 | 30963 ft | 478 kts | 330° |
| 2026-04-29 23:56 | 54.74372 | -2.98586 | 30313 ft | 477 kts | 330° |
| 2026-04-29 23:56 | 54.77255 | -3.01397 | 29700 ft | 474 kts | 330° |
| 2026-04-29 23:57 | 54.80136 | -3.04211 | 29010 ft | 476 kts | 330° |
| 2026-04-29 23:57 | 54.82962 | -3.06975 | 28423 ft | 473 kts | 330° |
| 2026-04-29 23:57 | 54.85880 | -3.09790 | 27777 ft | 469 kts | 331° |
| 2026-04-29 23:57 | 54.88654 | -3.12447 | 27167 ft | 464 kts | 331° |
| 2026-04-29 23:58 | 54.91503 | -3.15181 | 26551 ft | 459 kts | 331° |
| 2026-04-29 23:58 | 54.94293 | -3.17868 | 25955 ft | 455 kts | 331° |
| 2026-04-29 23:58 | 54.97054 | -3.20532 | 25339 ft | 452 kts | 331° |
| 2026-04-29 23:58 | 54.99792 | -3.23177 | 24758 ft | 447 kts | 330° |
| 2026-04-29 23:59 | 55.02507 | -3.25807 | 24156 ft | 444 kts | 330° |
| 2026-04-29 23:59 | 55.05189 | -3.28449 | 23546 ft | 440 kts | 330° |
| 2026-04-29 23:59 | 55.07825 | -3.31068 | 22977 ft | 434 kts | 330° |
| 2026-04-29 23:59 | 55.10438 | -3.33665 | 22405 ft | 430 kts | 330° |
| 2026-04-30 00:00 | 55.13031 | -3.36244 | 21847 ft | 428 kts | 330° |
| 2026-04-30 00:00 | 55.15582 | -3.38784 | 21285 ft | 426 kts | 330° |
| 2026-04-30 00:00 | 55.18151 | -3.41345 | 20730 ft | 424 kts | 330° |
| 2026-04-30 00:00 | 55.20719 | -3.43908 | 20055 ft | 423 kts | 330° |
| 2026-04-30 00:01 | 55.23270 | -3.46458 | 19394 ft | 420 kts | 330° |
| 2026-04-30 00:01 | 55.25805 | -3.48991 | 18625 ft | 419 kts | 330° |
| 2026-04-30 00:01 | 55.28329 | -3.51524 | 17915 ft | 414 kts | 330° |
| 2026-04-30 00:01 | 55.30817 | -3.54020 | 17199 ft | 409 kts | 330° |
| 2026-04-30 00:02 | 55.33280 | -3.56496 | 16515 ft | 406 kts | 330° |
| 2026-04-30 00:02 | 55.35686 | -3.58919 | 15817 ft | 403 kts | 330° |
| 2026-04-30 00:02 | 55.38123 | -3.61374 | 15125 ft | 400 kts | 331° |
| 2026-04-30 00:02 | 55.40532 | -3.63806 | 14437 ft | 399 kts | 331° |
| 2026-04-30 00:03 | 55.42932 | -3.66227 | 13732 ft | 396 kts | 331° |
| 2026-04-30 00:03 | 55.45305 | -3.68631 | 13086 ft | 391 kts | 331° |
| 2026-04-30 00:03 | 55.47660 | -3.71015 | 12388 ft | 387 kts | 331° |
| 2026-04-30 00:03 | 55.49970 | -3.73358 | 11723 ft | 375 kts | 330° |
| 2026-04-30 00:04 | 55.52168 | -3.75598 | 11114 ft | 355 kts | 331° |
| 2026-04-30 00:04 | 55.54256 | -3.77721 | 10575 ft | 337 kts | 330° |
| 2026-04-30 00:04 | 55.55583 | -3.79075 | 10233 ft | 327 kts | 330° |
| 2026-04-30 00:04 | 55.58110 | -3.81661 | 9682 ft | 310 kts | 331° |
| 2026-04-30 00:05 | 55.59376 | -3.82948 | 9480 ft | 312 kts | 331° |
| 2026-04-30 00:05 | 55.61876 | -3.85506 | 8916 ft | 314 kts | 330° |
| 2026-04-30 00:05 | 55.63152 | -3.86810 | 8640 ft | 312 kts | 330° |
| 2026-04-30 00:05 | 55.65000 | -3.88706 | 8240 ft | 309 kts | 330° |
| 2026-04-30 00:06 | 55.66857 | -3.90609 | 7837 ft | 306 kts | 330° |
| 2026-04-30 00:06 | 55.68648 | -3.92453 | 7472 ft | 289 kts | 329° |
| 2026-04-30 00:06 | 55.70064 | -3.94786 | 7136 ft | 275 kts | 298° |
| 2026-04-30 00:06 | 55.70652 | -3.98014 | 6479 ft | 281 kts | 270° |
| 2026-04-30 00:07 | 55.70620 | -4.01395 | 6321 ft | 269 kts | 265° |
| 2026-04-30 00:07 | 55.70610 | -4.04676 | 6082 ft | 263 kts | 268° |
| 2026-04-30 00:07 | 55.70656 | -4.07890 | 5881 ft | 259 kts | 269° |
| 2026-04-30 00:07 | 55.70731 | -4.11074 | 5669 ft | 256 kts | 270° |
| 2026-04-30 00:08 | 55.70814 | -4.14231 | 5459 ft | 255 kts | 270° |
| 2026-04-30 00:08 | 55.70902 | -4.17369 | 5258 ft | 254 kts | 270° |
| 2026-04-30 00:08 | 55.71026 | -4.20494 | 5046 ft | 254 kts | 271° |
| 2026-04-30 00:08 | 55.71156 | -4.23589 | 4831 ft | 254 kts | 271° |
| 2026-04-30 00:09 | 55.71287 | -4.26713 | 4628 ft | 255 kts | 270° |
| 2026-04-30 00:09 | 55.71400 | -4.29856 | 4419 ft | 256 kts | 271° |
| 2026-04-30 00:09 | 55.71520 | -4.32999 | 4205 ft | 255 kts | 271° |
| 2026-04-30 00:09 | 55.71655 | -4.36142 | 4006 ft | 255 kts | 272° |
| 2026-04-30 00:10 | 55.71818 | -4.39283 | 3773 ft | 254 kts | 272° |
| 2026-04-30 00:10 | 55.71946 | -4.42374 | 3590 ft | 247 kts | 271° |
| 2026-04-30 00:10 | 55.72093 | -4.45343 | 3351 ft | 236 kts | 272° |
| 2026-04-30 00:10 | 55.72256 | -4.48167 | 3132 ft | 224 kts | 274° |
| 2026-04-30 00:11 | 55.72636 | -4.50799 | 2932 ft | 218 kts | 295° |
| 2026-04-30 00:11 | 55.73580 | -4.52768 | 2813 ft | 200 kts | 328° |
| 2026-04-30 00:11 | 55.74790 | -4.53553 | 2686 ft | 176 kts | 0° |
| 2026-04-30 00:11 | 55.75940 | -4.53522 | 2484 ft | 165 kts | 4° |
| 2026-04-30 00:12 | 55.77073 | -4.53673 | 2248 ft | 160 kts | 0° |
| 2026-04-30 00:12 | 55.78159 | -4.53915 | 2025 ft | 154 kts | 360° |
| 2026-04-30 00:12 | 55.79220 | -4.54118 | 1775 ft | 150 kts | 359° |
| 2026-04-30 00:12 | 55.80251 | -4.54267 | 1602 ft | 147 kts | 5° |
| 2026-04-30 00:13 | 55.81237 | -4.54007 | 1476 ft | 142 kts | 26° |
| 2026-04-30 00:13 | 55.82042 | -4.53050 | 1264 ft | 140 kts | 49° |
| 2026-04-30 00:13 | 55.82702 | -4.51797 | 1126 ft | 137 kts | 50° |
| 2026-04-30 00:13 | 55.83352 | -4.50549 | 933 ft | 137 kts | 50° |
| 2026-04-30 00:14 | 55.83994 | -4.49305 | 761 ft | 135 kts | 48° |
| 2026-04-30 00:14 | 55.84645 | -4.48103 | 555 ft | 135 kts | 47° |
| 2026-04-30 00:14 | 55.85294 | -4.46900 | 390 ft | 135 kts | 50° |
| 2026-04-30 00:14 | 55.85950 | -4.45655 | 197 ft | 137 kts | 49° |
| 2026-04-30 00:15 | 55.86596 | -4.44447 | 44 ft | 131 kts | 49° |
| 2026-04-30 00:15 | 55.87151 | -4.43401 | 32 ft | 95 kts | 46° |
| 2026-04-30 00:15 | 55.87512 | -4.42731 | 29 ft | 62 kts | 46° |
| 2026-04-30 00:15 | 55.87744 | -4.42287 | 28 ft | 28 kts | 63° |
| 2026-04-30 00:16 | 55.87668 | -4.42143 | 22 ft | 18 kts | 178° |
| 2026-04-30 00:16 | 55.87577 | -4.42234 | 25 ft | 16 kts | 227° |
| 2026-04-30 00:16 | 55.87497 | -4.42382 | 27 ft | 16 kts | 226° |
| 2026-04-30 00:16 | 55.87418 | -4.42528 | 26 ft | 18 kts | 226° |
| 2026-04-30 00:17 | 55.87315 | -4.42637 | 27 ft | 17 kts | 204° |
| 2026-04-30 00:17 | 55.87202 | -4.42713 | 29 ft | 18 kts | 199° |
| 2026-04-30 00:17 | 55.87085 | -4.42791 | 27 ft | 18 kts | 200° |
| 2026-04-30 00:17 | 55.86965 | -4.42875 | 29 ft | 19 kts | 206° |
| 2026-04-30 00:18 | 55.86859 | -4.42985 | 31 ft | 15 kts | 227° |
| 2026-04-30 00:18 | 55.86817 | -4.43136 | 30 ft | 11 kts | 201° |
| 2026-04-30 00:18 | 55.86758 | -4.43124 | 30 ft | 5 kts | 163° |
| 2026-04-30 00:18 | 55.86753 | -4.43121 | 30 ft | 0 kts | 164° |